Time;durP1;ratioP1;P1;durP2;ratioP2;P2;SDS_P1;SDS_P2;PMS_P1;PMS_P2;Temp;Humidity;BMP_temperature;BMP_pressure;BME280_temperature;BME280_humidity;BME280_pressure;Samples;Min_cycle;Max_cycle;Signal;HPM_P1;HPM_P2
2021/06/04 00:01:27;;;;;;;18.88;17.13;;;20.00;94.80;;;;;;5078976;28;20174;-67
2021/06/04 00:03:56;;;;;;;17.83;16.17;;;20.00;95.00;;;;;;5072801;28;20036;-67
2021/06/04 00:06:24;;;;;;;14.07;12.98;;;20.00;94.90;;;;;;5068381;28;20040;-67
2021/06/04 00:08:52;;;;;;;12.65;11.70;;;20.00;95.00;;;;;;5072576;28;20049;-67
2021/06/04 00:11:46;;;;;;;13.40;12.30;;;20.00;94.90;;;;;;5072813;28;20094;-67
2021/06/04 00:14:17;;;;;;;27.15;24.35;;;20.00;94.60;;;;;;5067047;28;20045;-67
2021/06/04 00:16:48;;;;;;;19.05;17.15;;;20.00;94.40;;;;;;5072926;28;20041;-67
2021/06/04 00:19:20;;;;;;;13.10;12.10;;;19.90;94.10;;;;;;5073393;28;20048;-67
2021/06/04 00:21:51;;;;;;;12.93;11.93;;;19.90;94.00;;;;;;5073198;28;20056;-67
2021/06/04 00:24:19;;;;;;;12.68;11.77;;;19.90;94.10;;;;;;5072245;28;20048;-67
2021/06/04 00:26:48;;;;;;;12.30;11.35;;;19.90;94.20;;;;;;5071520;28;20056;-67
2021/06/04 00:29:16;;;;;;;12.65;11.57;;;19.90;94.20;;;;;;5070113;28;20048;-67
2021/06/04 00:31:45;;;;;;;12.48;11.57;;;19.90;94.10;;;;;;5061855;28;20118;-67
2021/06/04 00:34:14;;;;;;;12.90;11.90;;;19.90;94.20;;;;;;5066249;28;20045;-67
2021/06/04 00:36:43;;;;;;;13.25;12.05;;;19.90;94.30;;;;;;5072729;28;20048;-67
2021/06/04 00:39:14;;;;;;;13.27;12.27;;;19.90;94.40;;;;;;5071980;28;20044;-67
2021/06/04 00:41:54;;;;;;;13.43;12.38;;;19.90;94.50;;;;;;5073080;28;20047;-67
2021/06/04 00:44:23;;;;;;;13.02;12.07;;;20.00;94.40;;;;;;5072033;28;20403;-67
2021/06/04 00:46:51;;;;;;;12.48;11.57;;;19.90;94.70;;;;;;5071641;28;20056;-67
2021/06/04 00:49:18;;;;;;;12.55;11.65;;;19.90;94.30;;;;;;5072497;28;20053;-67
2021/06/04 00:52:17;;;;;;;12.77;11.82;;;19.80;94.30;;;;;;5071437;28;20514;-67
2021/06/04 00:54:46;;;;;;;12.90;12.00;;;19.80;94.20;;;;;;5067306;28;20045;-67
2021/06/04 00:57:14;;;;;;;12.40;11.50;;;19.70;94.10;;;;;;5071234;28;20041;-67
2021/06/04 00:59:43;;;;;;;13.10;12.20;;;19.70;94.00;;;;;;5070849;28;20502;-67
2021/06/04 01:02:22;;;;;;;19.75;17.67;;;19.60;93.90;;;;;;5055374;28;20132;-67
2021/06/04 01:04:50;;;;;;;14.32;13.23;;;19.60;93.90;;;;;;5071483;28;20044;-67
2021/06/04 01:07:36;;;;;;;13.10;12.13;;;19.50;93.90;;;;;;5068809;28;20110;-67
2021/06/04 01:10:23;;;;;;;13.80;12.63;;;19.50;93.90;;;;;;5070917;28;20052;-67
2021/06/04 01:13:00;;;;;;;13.07;12.18;;;19.40;94.00;;;;;;5071016;28;20094;-67
2021/06/04 01:16:12;;;;;;;13.45;12.45;;;19.30;94.20;;;;;;5071405;28;20453;-67
2021/06/04 01:19:15;;;;;;;12.68;11.77;;;19.30;94.40;;;;;;5033112;28;20041;-67
2021/06/04 01:21:50;;;;;;;13.25;12.10;;;19.20;94.50;;;;;;4936231;29;20101;-67
2021/06/04 01:24:58;;;;;;;12.55;11.63;;;19.10;94.70;;;;;;4950783;28;20048;-67
2021/06/04 01:27:34;;;;;;;13.40;12.30;;;19.00;94.90;;;;;;4947407;29;20110;-67
2021/06/04 01:30:43;;;;;;;13.07;12.18;;;19.00;95.00;;;;;;4945657;29;20524;-67
2021/06/04 01:33:17;;;;;;;13.57;12.68;;;19.00;95.20;;;;;;4875815;29;20076;-67
2021/06/04 01:35:49;;;;;;;13.20;12.20;;;19.00;95.30;;;;;;4875948;29;20053;-67
2021/06/04 01:38:22;;;;;;;13.40;12.40;;;19.10;95.30;;;;;;4875522;29;20591;-67
2021/06/04 01:40:57;;;;;;;12.93;11.93;;;19.10;95.50;;;;;;4875942;29;20056;-67
2021/06/04 01:43:30;;;;;;;13.30;12.27;;;19.10;95.60;;;;;;4874947;29;20041;-67
2021/06/04 01:46:05;;;;;;;13.73;12.63;;;19.20;95.70;;;;;;4860653;29;20097;-67
2021/06/04 01:48:47;;;;;;;13.45;12.45;;;19.10;95.90;;;;;;4875547;29;20084;-67
2021/06/04 01:51:31;;;;;;;13.63;12.55;;;19.10;95.90;;;;;;4876035;29;20053;-67
2021/06/04 01:54:14;;;;;;;13.32;12.18;;;19.10;96.10;;;;;;4911500;29;20151;-67
2021/06/04 01:56:47;;;;;;;13.40;12.30;;;19.10;96.20;;;;;;4908429;28;20442;-67
2021/06/04 01:59:32;;;;;;;12.70;11.80;;;19.20;96.30;;;;;;4954377;28;20085;-67
2021/06/04 02:02:13;;;;;;;13.30;12.10;;;19.20;96.30;;;;;;4960920;28;20047;-67
2021/06/04 02:04:45;;;;;;;13.23;12.15;;;19.20;96.40;;;;;;4969886;28;20110;-67
2021/06/04 02:07:17;;;;;;;12.32;11.43;;;19.20;96.30;;;;;;4963411;28;20512;-67
2021/06/04 02:09:46;;;;;;;13.00;12.10;;;19.30;96.30;;;;;;5061117;28;20062;-67
2021/06/04 02:12:21;;;;;;;13.10;12.02;;;19.30;96.20;;;;;;5041397;28;20045;-67
2021/06/04 02:15:07;;;;;;;12.98;12.00;;;19.30;96.20;;;;;;5065934;28;20071;-67
2021/06/04 02:18:06;;;;;;;13.05;12.10;;;19.20;96.20;;;;;;5064632;28;20093;-67
2021/06/04 02:20:51;;;;;;;13.50;12.40;;;19.30;96.20;;;;;;5069534;28;20040;-67
2021/06/04 02:23:29;;;;;;;12.30;11.38;;;19.40;95.90;;;;;;5063814;28;20032;-67
2021/06/04 02:26:28;;;;;;;13.23;12.13;;;19.40;95.60;;;;;;5064782;28;20521;-67
2021/06/04 02:29:13;;;;;;;14.13;12.18;;;19.40;95.40;;;;;;5070284;28;20053;-67
2021/06/04 02:31:46;;;;;;;12.95;11.82;;;19.40;95.30;;;;;;5064998;28;20752;-67
2021/06/04 02:34:18;;;;;;;12.63;11.63;;;19.40;95.30;;;;;;5060985;28;20056;-67
2021/06/04 02:36:54;;;;;;;12.80;11.82;;;19.40;95.20;;;;;;5068542;28;20059;-67
2021/06/04 02:39:50;;;;;;;12.70;11.70;;;19.40;95.20;;;;;;5069159;28;20052;-67
2021/06/04 02:42:25;;;;;;;12.63;11.73;;;19.40;95.20;;;;;;5061560;28;20047;-67
2021/06/04 02:45:05;;;;;;;12.23;11.32;;;19.40;95.30;;;;;;5063162;28;20094;-67
2021/06/04 02:47:41;;;;;;;12.95;11.95;;;19.40;95.40;;;;;;5069569;28;20037;-67
2021/06/04 02:50:27;;;;;;;13.02;11.93;;;19.40;95.40;;;;;;5069259;28;20527;-67
2021/06/04 02:53:21;;;;;;;12.60;11.68;;;19.40;95.30;;;;;;5062694;28;20049;-66
2021/06/04 02:56:04;;;;;;;13.20;12.05;;;19.40;95.30;;;;;;5085106;28;20405;-67
2021/06/04 02:58:36;;;;;;;13.27;12.18;;;19.40;95.40;;;;;;5052457;28;20053;-66
2021/06/04 03:01:07;;;;;;;12.93;11.93;;;19.40;95.50;;;;;;5061890;28;20061;-67
2021/06/04 03:03:37;;;;;;;13.02;11.75;;;19.30;95.70;;;;;;5061461;28;20048;-67
2021/06/04 03:06:06;;;;;;;12.85;11.90;;;19.30;95.70;;;;;;5070565;28;20110;-66
2021/06/04 03:08:35;;;;;;;11.75;10.85;;;19.30;95.70;;;;;;5067580;28;20102;-66
2021/06/04 03:11:07;;;;;;;13.98;12.70;;;19.20;95.70;;;;;;5070504;28;20086;-66
2021/06/04 03:13:36;;;;;;;12.23;11.32;;;19.30;95.70;;;;;;5068248;28;20044;-67
2021/06/04 03:16:19;;;;;;;12.88;11.88;;;19.20;95.60;;;;;;5069125;28;20542;-66
2021/06/04 03:18:51;;;;;;;13.85;12.65;;;19.20;95.50;;;;;;5069304;28;20402;-66
2021/06/04 03:21:29;;;;;;;12.73;11.82;;;19.20;95.50;;;;;;5069167;28;20044;-66
2021/06/04 03:24:02;;;;;;;13.35;12.30;;;19.20;95.60;;;;;;5065860;28;20048;-66
2021/06/04 03:26:31;;;;;;;13.32;12.13;;;19.20;95.70;;;;;;5068345;28;20406;-66
2021/06/04 03:29:07;;;;;;;13.30;12.38;;;19.20;95.80;;;;;;5069325;28;20059;-66
2021/06/04 03:31:37;;;;;;;13.52;12.52;;;19.20;95.90;;;;;;5068357;28;20047;-66
2021/06/04 03:34:07;;;;;;;13.20;12.20;;;19.20;96.10;;;;;;5070885;28;20147;-66
2021/06/04 03:36:39;;;;;;;13.43;12.40;;;19.20;96.00;;;;;;5069367;28;20055;-67
2021/06/04 03:39:12;;;;;;;13.48;12.50;;;19.20;96.10;;;;;;5069770;28;20410;-66
2021/06/04 03:41:41;;;;;;;13.18;12.00;;;19.20;96.10;;;;;;5069191;28;20052;-66
2021/06/04 03:44:13;;;;;;;13.27;12.27;;;19.20;96.20;;;;;;5067986;28;20114;-67
2021/06/04 03:46:42;;;;;;;12.77;11.80;;;19.20;96.40;;;;;;5069234;28;20051;-67
2021/06/04 03:49:17;;;;;;;13.07;11.95;;;19.20;96.40;;;;;;5051761;28;20411;-67
2021/06/04 03:51:47;;;;;;;12.75;11.82;;;19.30;96.60;;;;;;5065389;28;20064;-66
2021/06/04 03:54:20;;;;;;;13.25;12.30;;;19.30;96.70;;;;;;5073829;28;20482;-66
2021/06/04 03:56:49;;;;;;;14.00;12.50;;;19.30;96.80;;;;;;5065872;28;20045;-66
2021/06/04 03:59:16;;;;;;;13.73;12.52;;;19.30;96.90;;;;;;5073944;28;20498;-68
2021/06/04 04:01:47;;;;;;;13.88;12.77;;;19.30;97.10;;;;;;5071934;28;20056;-68
2021/06/04 04:04:16;;;;;;;13.90;12.10;;;19.40;97.00;;;;;;5072388;28;20518;-68
2021/06/04 04:06:43;;;;;;;15.25;13.95;;;19.40;97.30;;;;;;5073308;28;20109;-68
2021/06/04 04:09:12;;;;;;;15.00;13.90;;;19.40;97.10;;;;;;5070582;28;20068;-68
2021/06/04 04:11:42;;;;;;;13.82;12.82;;;19.40;97.00;;;;;;5056580;28;20060;-68
2021/06/04 04:14:10;;;;;;;13.35;12.35;;;19.40;96.90;;;;;;5066588;28;20045;-68
2021/06/04 04:16:37;;;;;;;13.07;12.07;;;19.40;96.90;;;;;;5054597;28;20047;-68
2021/06/04 04:19:05;;;;;;;13.57;12.57;;;19.40;96.70;;;;;;5072955;28;20079;-68
2021/06/04 04:21:34;;;;;;;13.20;12.30;;;19.50;96.90;;;;;;5073814;28;20048;-68
2021/06/04 04:24:05;;;;;;;13.80;12.70;;;19.50;97.00;;;;;;5072886;28;20098;-68
2021/06/04 04:26:35;;;;;;;14.63;13.32;;;19.50;97.20;;;;;;5070930;28;20090;-68
2021/06/04 04:29:06;;;;;;;13.77;12.77;;;19.50;97.40;;;;;;5073314;28;20041;-68
2021/06/04 04:31:40;;;;;;;13.60;12.50;;;19.40;97.60;;;;;;5071451;28;20036;-68
2021/06/04 04:34:08;;;;;;;13.93;12.90;;;19.30;97.80;;;;;;5073451;28;20510;-68
2021/06/04 04:36:40;;;;;;;14.18;12.90;;;19.20;97.90;;;;;;5073168;28;20485;-68
2021/06/04 04:39:10;;;;;;;13.98;12.88;;;19.20;98.20;;;;;;5068493;28;20097;-68
2021/06/04 04:41:38;;;;;;;14.05;12.95;;;19.20;98.30;;;;;;5061816;28;20041;-67
2021/06/04 04:44:06;;;;;;;13.45;12.38;;;19.20;98.80;;;;;;5072731;28;20051;-67
2021/06/04 04:46:34;;;;;;;15.18;13.88;;;19.30;98.50;;;;;;5073172;28;20045;-67
2021/06/04 04:49:02;;;;;;;14.20;13.10;;;19.30;98.40;;;;;;5072507;28;20052;-67
2021/06/04 04:51:31;;;;;;;13.60;12.50;;;19.40;98.30;;;;;;5072774;28;20087;-67
2021/06/04 04:53:59;;;;;;;14.02;12.75;;;19.40;98.20;;;;;;5070689;28;20053;-67
2021/06/04 04:56:27;;;;;;;13.63;12.50;;;19.50;98.10;;;;;;5072809;28;20065;-67
2021/06/04 04:58:55;;;;;;;13.32;12.32;;;19.50;98.10;;;;;;5070314;28;20056;-67
2021/06/04 05:01:23;;;;;;;12.95;11.88;;;19.60;98.40;;;;;;5072492;28;20135;-67
2021/06/04 05:03:51;;;;;;;12.90;11.90;;;19.60;98.10;;;;;;5072033;28;20060;-67
2021/06/04 05:06:18;;;;;;;13.98;12.55;;;19.60;98.10;;;;;;5068353;28;20136;-67
2021/06/04 05:08:47;;;;;;;14.07;12.88;;;19.70;98.20;;;;;;5070204;28;20495;-67
2021/06/04 05:11:15;;;;;;;14.23;13.02;;;19.70;98.10;;;;;;5072384;28;20060;-67
2021/06/04 05:13:48;;;;;;;14.18;12.93;;;19.70;98.20;;;;;;5072284;28;20052;-67
2021/06/04 05:16:16;;;;;;;13.85;12.60;;;19.70;98.10;;;;;;5064246;28;20041;-67
2021/06/04 05:18:45;;;;;;;14.27;12.60;;;19.70;98.50;;;;;;5072167;28;20066;-67
2021/06/04 05:21:16;;;;;;;13.90;12.55;;;19.80;98.10;;;;;;5072017;28;20050;-67
2021/06/04 05:23:43;;;;;;;13.93;12.70;;;19.80;98.10;;;;;;5066811;28;20044;-67
2021/06/04 05:26:11;;;;;;;15.00;13.70;;;19.90;97.90;;;;;;5068610;28;20458;-67
2021/06/04 05:28:41;;;;;;;15.43;13.90;;;20.00;97.80;;;;;;5072010;28;20044;-67
2021/06/04 05:31:11;;;;;;;13.85;12.82;;;20.00;97.70;;;;;;5072141;28;20114;-67
2021/06/04 05:33:42;;;;;;;13.05;12.05;;;20.10;97.70;;;;;;5067122;28;20045;-67
2021/06/04 05:36:14;;;;;;;12.75;11.75;;;20.20;97.60;;;;;;5061978;28;20498;-67
2021/06/04 05:38:42;;;;;;;15.88;12.05;;;20.20;97.60;;;;;;5071560;28;20110;-67
2021/06/04 05:41:10;;;;;;;14.25;12.90;;;20.40;97.50;;;;;;5071596;28;20139;-67
2021/06/04 05:43:39;;;;;;;12.93;11.88;;;20.40;97.40;;;;;;5070225;28;20072;-67
2021/06/04 05:46:12;;;;;;;14.52;13.27;;;20.40;97.40;;;;;;5072051;28;20418;-67
2021/06/04 05:48:40;;;;;;;14.80;13.40;;;20.50;97.40;;;;;;5069377;28;20531;-67
2021/06/04 05:51:13;;;;;;;15.30;14.00;;;20.50;97.30;;;;;;5071609;28;20048;-67
2021/06/04 05:53:41;;;;;;;13.70;12.55;;;20.60;97.30;;;;;;5069495;28;20135;-67
2021/06/04 05:56:11;;;;;;;13.50;12.40;;;20.70;97.20;;;;;;5070212;28;20044;-67
2021/06/04 05:58:39;;;;;;;13.68;12.25;;;20.80;97.00;;;;;;5070009;28;20052;-67
2021/06/04 06:01:09;;;;;;;15.77;12.13;;;20.90;96.90;;;;;;5065618;28;20045;-67
2021/06/04 06:03:37;;;;;;;13.98;12.60;;;21.00;96.80;;;;;;5058933;28;20103;-67
2021/06/04 06:06:07;;;;;;;13.82;12.52;;;21.10;96.70;;;;;;5070104;28;20453;-66
2021/06/04 06:08:34;;;;;;;15.88;14.15;;;21.10;96.70;;;;;;5071088;28;20052;-67
2021/06/04 06:11:03;;;;;;;16.65;14.93;;;21.20;96.60;;;;;;5056963;28;20098;-67
2021/06/04 06:13:31;;;;;;;15.77;14.38;;;21.30;96.50;;;;;;5059851;28;20048;-67
2021/06/04 06:15:58;;;;;;;15.90;14.35;;;21.40;96.40;;;;;;5059119;28;20049;-67
2021/06/04 06:18:26;;;;;;;14.20;13.00;;;21.50;96.30;;;;;;5056703;28;20045;-67
2021/06/04 06:20:54;;;;;;;19.58;17.50;;;21.60;96.30;;;;;;5051098;28;20073;-67
2021/06/04 06:23:28;;;;;;;16.17;14.57;;;21.70;96.20;;;;;;5059882;28;20223;-67
2021/06/04 06:26:01;;;;;;;19.40;17.70;;;21.90;96.00;;;;;;5062314;28;20061;-67
2021/06/04 06:28:33;;;;;;;15.95;14.50;;;22.10;96.10;;;;;;5075750;28;20416;-67
2021/06/04 06:31:06;;;;;;;13.75;12.10;;;22.30;95.60;;;;;;5068526;28;20415;-67
2021/06/04 06:33:34;;;;;;;13.40;12.15;;;22.40;95.30;;;;;;5067413;28;20049;-67
2021/06/04 06:36:06;;;;;;;13.43;12.23;;;22.50;95.20;;;;;;5063304;28;20113;-67
2021/06/04 06:38:34;;;;;;;15.55;14.07;;;22.60;95.00;;;;;;5071254;28;20487;-67
2021/06/04 06:41:04;;;;;;;14.73;13.18;;;22.80;95.00;;;;;;5065393;28;20135;-67
2021/06/04 06:43:34;;;;;;;15.02;13.88;;;22.90;95.00;;;;;;5069332;28;20106;-67
2021/06/04 06:46:02;;;;;;;22.15;19.95;;;23.00;94.90;;;;;;5070943;28;20060;-67
2021/06/04 06:48:43;;;;;;;15.43;13.95;;;23.10;94.80;;;;;;5108810;27;20602;-66
2021/06/04 06:51:10;;;;;;;13.75;12.45;;;23.20;94.50;;;;;;5097519;28;20447;-66
2021/06/04 06:53:39;;;;;;;14.10;12.55;;;23.20;94.20;;;;;;5106281;28;20444;-66
2021/06/04 06:56:09;;;;;;;15.20;12.30;;;23.30;94.10;;;;;;5108658;28;20502;-65
2021/06/04 06:58:37;;;;;;;16.05;12.10;;;23.30;94.20;;;;;;5094805;28;20139;-65
2021/06/04 07:01:05;;;;;;;13.18;11.88;;;23.30;94.40;;;;;;5103223;28;20176;-65
2021/06/04 07:03:35;;;;;;;14.80;12.77;;;23.30;94.10;;;;;;5100593;28;20232;-65
2021/06/04 07:06:08;;;;;;;14.32;12.88;;;23.40;94.10;;;;;;5096866;28;20078;-65
2021/06/04 07:08:36;;;;;;;14.60;12.98;;;23.50;94.20;;;;;;5096323;28;20048;-64
2021/06/04 07:11:03;;;;;;;13.13;12.02;;;23.60;94.10;;;;;;5102801;28;20041;-65
2021/06/04 07:13:31;;;;;;;17.63;14.90;;;23.80;94.00;;;;;;5098513;28;20071;-65
2021/06/04 07:16:06;;;;;;;15.23;14.02;;;24.00;94.00;;;;;;5092879;28;20052;-65
2021/06/04 07:18:35;;;;;;;13.10;11.90;;;24.20;93.80;;;;;;5097894;28;20047;-66
2021/06/04 07:21:03;;;;;;;13.60;12.35;;;24.30;93.50;;;;;;5094112;28;20056;-65
2021/06/04 07:23:31;;;;;;;11.18;10.23;;;24.40;93.40;;;;;;5105430;28;20055;-65
2021/06/04 07:25:58;;;;;;;12.73;11.45;;;24.50;93.40;;;;;;5090794;28;20094;-65
2021/06/04 07:28:31;;;;;;;12.23;11.23;;;24.60;93.50;;;;;;5074506;28;20040;-66
2021/06/04 07:31:01;;;;;;;12.43;11.43;;;24.90;93.30;;;;;;5074187;28;20057;-65
2021/06/04 07:33:35;;;;;;;12.05;11.05;;;25.00;93.00;;;;;;5073379;28;20041;-66
2021/06/04 07:36:07;;;;;;;12.43;11.35;;;25.10;92.90;;;;;;5077015;28;20135;-65
2021/06/04 07:38:36;;;;;;;13.45;12.25;;;25.20;92.40;;;;;;5067195;28;20063;-65
2021/06/04 07:41:06;;;;;;;13.30;12.20;;;25.10;92.60;;;;;;5068797;28;20051;-65
2021/06/04 07:43:38;;;;;;;13.20;12.07;;;25.10;92.60;;;;;;5075300;28;20080;-66
2021/06/04 07:46:08;;;;;;;14.35;13.10;;;25.10;92.70;;;;;;5085664;28;20060;-65
2021/06/04 07:48:36;;;;;;;13.18;11.95;;;24.90;92.80;;;;;;5081490;28;20118;-65
2021/06/04 07:51:07;;;;;;;13.82;12.60;;;24.80;93.00;;;;;;5086916;28;20453;-65
2021/06/04 07:53:35;;;;;;;13.02;12.10;;;24.70;93.00;;;;;;5085501;28;20102;-65
2021/06/04 07:56:04;;;;;;;12.80;11.80;;;24.60;93.20;;;;;;5075785;28;20090;-66
2021/06/04 07:58:32;;;;;;;13.25;12.13;;;24.70;93.40;;;;;;5081398;28;20048;-65
2021/06/04 08:01:02;;;;;;;12.95;11.95;;;24.60;93.60;;;;;;5069439;28;20568;-65
2021/06/04 08:03:32;;;;;;;13.52;12.32;;;24.40;93.90;;;;;;5072808;28;20058;-65
2021/06/04 08:06:00;;;;;;;14.50;12.50;;;24.30;94.20;;;;;;5071680;28;20552;-65
2021/06/04 08:08:32;;;;;;;13.13;11.90;;;24.20;94.20;;;;;;5072769;28;20049;-65
2021/06/04 08:11:01;;;;;;;13.77;12.48;;;24.20;94.50;;;;;;5055080;28;20076;-65
2021/06/04 08:13:28;;;;;;;13.40;12.10;;;24.20;94.80;;;;;;5061106;28;20052;-66
2021/06/04 08:16:02;;;;;;;13.27;12.15;;;24.30;94.90;;;;;;5086162;28;20059;-66
2021/06/04 08:18:32;;;;;;;13.18;11.88;;;24.40;95.20;;;;;;5058790;28;20049;-66
2021/06/04 08:21:05;;;;;;;13.40;12.32;;;24.60;95.30;;;;;;5066352;28;20056;-65
2021/06/04 08:23:37;;;;;;;14.00;12.65;;;24.80;95.30;;;;;;5073912;28;20044;-66
2021/06/04 08:26:08;;;;;;;13.13;11.95;;;25.00;95.00;;;;;;5077531;28;20060;-66
2021/06/04 08:28:37;;;;;;;13.20;11.98;;;25.30;95.00;;;;;;5072530;28;20059;-65
2021/06/04 08:31:06;;;;;;;13.02;11.95;;;25.40;94.70;;;;;;5073072;28;20103;-66
2021/06/04 08:33:37;;;;;;;12.80;11.60;;;25.60;94.40;;;;;;5059520;28;20047;-66
2021/06/04 08:36:10;;;;;;;13.18;12.18;;;25.70;94.30;;;;;;5062109;28;20154;-66
2021/06/04 08:38:41;;;;;;;13.95;12.73;;;25.80;94.10;;;;;;5051946;28;20134;-65
2021/06/04 08:41:56;;;;;;;13.35;12.27;;;25.90;93.90;;;;;;5062081;28;20052;-66
2021/06/04 08:44:32;;;;;;;13.60;12.32;;;26.00;93.90;;;;;;5029741;28;20068;-66
2021/06/04 08:47:14;;;;;;;13.20;12.20;;;26.40;93.80;;;;;;5028016;28;20103;-65
2021/06/04 08:50:02;;;;;;;14.15;12.95;;;26.50;93.60;;;;;;5028610;28;20079;-67
2021/06/04 08:52:59;;;;;;;13.32;12.13;;;26.60;93.30;;;;;;5027779;28;20049;-65
2021/06/04 08:55:27;;;;;;;13.45;12.15;;;26.80;93.10;;;;;;5027798;28;20050;-66
2021/06/04 08:58:13;;;;;;;13.13;12.02;;;27.20;92.80;;;;;;5029273;28;20081;-65
2021/06/04 09:00:48;;;;;;;13.27;12.18;;;27.30;92.60;;;;;;5028917;28;20041;-66
2021/06/04 09:03:32;;;;;;;13.88;12.52;;;27.50;92.10;;;;;;5019561;28;20060;-66
2021/06/04 09:06:19;;;;;;;12.95;11.95;;;27.60;92.20;;;;;;5030030;28;20053;-66
2021/06/04 09:08:47;;;;;;;13.38;12.38;;;27.70;91.90;;;;;;5028267;28;20053;-66
2021/06/04 09:11:35;;;;;;;13.07;11.88;;;27.90;91.80;;;;;;5028712;28;20531;-66
2021/06/04 09:14:04;;;;;;;12.70;11.88;;;28.40;91.50;;;;;;5027506;28;20049;-66
2021/06/04 09:16:50;;;;;;;14.00;13.00;;;28.50;91.00;;;;;;5028014;28;20657;-66
2021/06/04 09:19:39;;;;;;;13.82;12.73;;;28.70;90.50;;;;;;5028384;28;20041;-66
2021/06/04 09:22:08;;;;;;;14.05;12.57;;;28.90;90.40;;;;;;5063460;28;20329;-66
2021/06/04 09:24:40;;;;;;;14.55;12.50;;;29.10;88.50;;;;;;5078736;28;20491;-66
2021/06/04 09:27:31;;;;;;;13.90;12.88;;;29.30;87.90;;;;;;5070811;28;20063;-66
2021/06/04 09:30:08;;;;;;;13.40;12.30;;;29.60;84.30;;;;;;5071339;28;20055;-66
2021/06/04 09:32:35;;;;;;;12.93;11.93;;;29.60;82.80;;;;;;5071230;28;20102;-66
2021/06/04 09:35:17;;;;;;;13.07;11.98;;;29.80;81.30;;;;;;5071294;28;20052;-66
2021/06/04 09:37:46;;;;;;;12.68;11.63;;;29.60;79.00;;;;;;5051842;28;20134;-66
2021/06/04 09:40:31;;;;;;;12.27;11.30;;;29.80;78.70;;;;;;5054180;28;20048;-66
2021/06/04 09:43:01;;;;;;;12.30;11.25;;;30.00;78.90;;;;;;5070876;28;20129;-66
2021/06/04 09:45:37;;;;;;;11.88;11.07;;;30.00;77.50;;;;;;5070617;28;20406;-66
2021/06/04 09:48:04;;;;;;;11.68;10.77;;;30.10;76.90;;;;;;5067651;28;20067;-66
2021/06/04 09:50:42;;;;;;;12.20;11.20;;;30.10;77.60;;;;;;5071585;28;20441;-66
2021/06/04 09:53:18;;;;;;;11.93;10.90;;;30.20;76.10;;;;;;5070824;28;20055;-66
2021/06/04 09:56:07;;;;;;;12.13;11.23;;;30.10;76.10;;;;;;5061528;28;20414;-67
2021/06/04 09:58:56;;;;;;;12.55;11.57;;;30.30;76.30;;;;;;5064584;28;20124;-67
2021/06/04 10:01:28;;;;;;;13.43;12.20;;;30.40;75.90;;;;;;5071206;28;20044;-66
2021/06/04 10:04:00;;;;;;;12.27;11.27;;;30.20;75.80;;;;;;5071368;28;20127;-66
2021/06/04 10:06:34;;;;;;;12.50;11.55;;;30.30;76.20;;;;;;5071789;28;20135;-66
2021/06/04 10:09:27;;;;;;;12.88;11.82;;;30.70;75.90;;;;;;5085421;28;20044;-66
2021/06/04 10:11:58;;;;;;;11.85;10.85;;;31.10;75.20;;;;;;5050841;28;20095;-66
2021/06/04 10:14:55;;;;;;;14.27;12.80;;;31.10;75.20;;;;;;5068183;28;20135;-66
2021/06/04 10:20:30;;;;;;;15.10;13.70;;;30.60;73.50;;;;;;5058918;28;20036;-66
2021/06/04 10:23:03;;;;;;;15.40;14.00;;;30.80;73.40;;;;;;5065683;28;20147;-66
2021/06/04 10:25:49;;;;;;;13.25;12.15;;;31.00;73.60;;;;;;5061661;28;20105;-66
2021/06/04 10:28:42;;;;;;;12.18;11.27;;;31.10;73.00;;;;;;5069214;28;20072;-66
2021/06/04 10:31:15;;;;;;;13.13;11.85;;;31.40;73.30;;;;;;5066031;28;20072;-66
2021/06/04 10:33:51;;;;;;;12.00;11.10;;;31.50;72.40;;;;;;5061285;28;20050;-66
2021/06/04 10:36:21;;;;;;;11.48;10.50;;;31.60;71.80;;;;;;5057543;28;20084;-66
2021/06/04 10:38:53;;;;;;;12.60;11.48;;;31.50;70.80;;;;;;5048519;28;20049;-66
2021/06/04 10:41:26;;;;;;;16.02;14.55;;;31.70;71.00;;;;;;5062903;28;20131;-66
2021/06/04 10:44:12;;;;;;;13.00;12.00;;;31.70;70.20;;;;;;5069244;28;20056;-66
2021/06/04 10:47:00;;;;;;;12.60;11.48;;;32.00;72.00;;;;;;5070056;28;20044;-66
2021/06/04 10:49:53;;;;;;;11.65;10.65;;;31.90;72.20;;;;;;5070801;28;20045;-66
2021/06/04 10:52:52;;;;;;;11.48;10.60;;;31.80;72.70;;;;;;5067941;28;20071;-66
2021/06/04 10:55:26;;;;;;;11.52;10.60;;;31.90;71.40;;;;;;5028274;28;20148;-66
2021/06/04 10:58:33;;;;;;;11.38;10.48;;;31.90;71.70;;;;;;5026358;28;20053;-66
2021/06/04 11:01:05;;;;;;;11.85;10.95;;;31.90;71.80;;;;;;4998347;28;20042;-66
2021/06/04 11:03:57;;;;;;;10.18;9.27;;;32.10;70.70;;;;;;5026011;28;20061;-66
2021/06/04 11:06:36;;;;;;;11.20;10.40;;;32.10;70.70;;;;;;5028271;28;20057;-65
2021/06/04 11:09:22;;;;;;;11.52;10.63;;;32.20;69.60;;;;;;5026413;28;20072;-65
2021/06/04 11:11:55;;;;;;;11.15;10.30;;;32.60;69.40;;;;;;5026361;28;20125;-66
2021/06/04 11:14:37;;;;;;;11.75;10.73;;;32.90;67.20;;;;;;5027353;28;20567;-66
2021/06/04 11:17:22;;;;;;;11.07;10.27;;;33.30;64.30;;;;;;5016792;28;20049;-66
2021/06/04 11:20:10;;;;;;;11.95;11.02;;;33.60;63.20;;;;;;5009888;28;20453;-66
2021/06/04 11:22:58;;;;;;;12.07;11.15;;;33.60;63.50;;;;;;5025660;28;20061;-66
2021/06/04 11:26:02;;;;;;;12.02;11.13;;;33.80;63.50;;;;;;5032769;28;20646;-66
2021/06/04 11:28:52;;;;;;;12.25;11.13;;;33.70;62.50;;;;;;5027400;28;20412;-66
2021/06/04 11:31:28;;;;;;;13.40;12.05;;;33.80;62.00;;;;;;5028365;28;20087;-66
2021/06/04 11:33:59;;;;;;;14.93;13.52;;;34.30;61.40;;;;;;5059838;28;20049;-66
2021/06/04 11:36:28;;;;;;;11.35;10.32;;;34.50;60.90;;;;;;5060664;28;20061;-66
2021/06/04 11:39:08;;;;;;;11.02;10.13;;;34.60;60.40;;;;;;5052346;28;20124;-66
2021/06/04 11:41:48;;;;;;;10.85;10.13;;;34.90;60.20;;;;;;5065804;28;20098;-66
2021/06/04 11:44:42;;;;;;;11.57;10.77;;;35.50;59.30;;;;;;5063856;28;20537;-66
2021/06/04 11:47:12;;;;;;;10.90;10.20;;;35.60;58.80;;;;;;5066024;28;20569;-66
2021/06/04 11:50:07;;;;;;;11.45;10.50;;;36.00;57.50;;;;;;5063418;28;20449;-66
2021/06/04 11:52:42;;;;;;;11.52;10.73;;;36.30;57.50;;;;;;5055091;28;20045;-66
2021/06/04 11:55:28;;;;;;;11.90;10.95;;;36.50;56.00;;;;;;5068669;28;20086;-66
2021/06/04 11:58:20;;;;;;;11.00;10.20;;;36.90;55.20;;;;;;5059007;28;20056;-66
2021/06/04 12:01:10;;;;;;;12.10;11.20;;;36.70;54.10;;;;;;5069702;28;20589;-66
2021/06/04 12:03:43;;;;;;;11.60;10.80;;;37.30;53.80;;;;;;5072742;28;20056;-66
2021/06/04 12:06:36;;;;;;;11.50;10.70;;;37.50;53.10;;;;;;5073024;28;20098;-66
2021/06/04 12:09:30;;;;;;;11.27;10.48;;;37.40;51.90;;;;;;5071887;28;20098;-66
2021/06/04 12:12:16;;;;;;;11.70;10.80;;;37.10;52.00;;;;;;5072922;28;20292;-66
2021/06/04 12:14:55;;;;;;;10.82;10.02;;;37.30;51.40;;;;;;5070391;28;20067;-66
2021/06/04 12:17:30;;;;;;;11.35;10.50;;;37.40;51.40;;;;;;5072836;28;20422;-66
2021/06/04 12:20:26;;;;;;;10.10;9.50;;;37.60;51.00;;;;;;5063254;28;20582;-66
2021/06/04 12:23:02;;;;;;;11.75;10.85;;;37.70;50.20;;;;;;5067112;28;20376;-66
2021/06/04 12:25:49;;;;;;;11.13;10.30;;;37.60;50.70;;;;;;5076552;28;20128;-66
2021/06/04 12:28:19;;;;;;;11.05;10.30;;;37.20;50.20;;;;;;5072517;28;20456;-67
2021/06/04 12:31:01;;;;;;;10.93;10.13;;;37.90;49.70;;;;;;5067318;28;20048;-67
2021/06/04 12:33:38;;;;;;;11.18;10.40;;;38.10;49.60;;;;;;5072640;28;20060;-66
2021/06/04 12:36:30;;;;;;;11.05;10.30;;;37.90;49.40;;;;;;5062438;28;20052;-66
2021/06/04 12:39:24;;;;;;;10.80;10.10;;;37.40;49.70;;;;;;5052210;28;20561;-66
2021/06/04 12:42:01;;;;;;;10.88;10.05;;;37.70;49.90;;;;;;5067824;28;20132;-66
2021/06/04 12:44:29;;;;;;;11.80;11.00;;;38.10;49.20;;;;;;5061145;28;20048;-66
2021/06/04 12:46:57;;;;;;;11.60;10.70;;;38.10;48.80;;;;;;5071454;28;20406;-66
2021/06/04 12:49:25;;;;;;;11.57;10.77;;;38.20;48.80;;;;;;5071286;28;20117;-66
2021/06/04 12:51:52;;;;;;;11.88;10.98;;;38.50;49.00;;;;;;5066640;28;20076;-66
2021/06/04 12:54:23;;;;;;;11.57;10.77;;;37.50;50.60;;;;;;5072236;28;20037;-66
2021/06/04 12:56:52;;;;;;;;;;;37.00;51.00;;;;;;5072241;28;20061;-66
2021/06/04 12:59:23;;;;;;;12.23;11.32;;;36.70;51.80;;;;;;5063653;28;20051;-66
2021/06/04 13:01:56;;;;;;;11.55;10.50;;;36.80;52.00;;;;;;5069402;28;20564;-66
2021/06/04 13:04:27;;;;;;;11.55;10.75;;;36.70;51.40;;;;;;5071259;28;20048;-66
2021/06/04 13:06:56;;;;;;;;;;;36.70;51.70;;;;;;5071828;28;20110;-66
2021/06/04 13:09:36;;;;;;;11.48;10.45;;;36.50;51.20;;;;;;5081026;28;19931;-66
2021/06/04 13:12:19;;;;;;;11.50;10.60;;;36.70;50.80;;;;;;5053833;28;20542;-66